sensor_id;sensor_type;location;lat;lon;timestamp;temperature;humidity
20066;DHT22;10193;48.884;9.182;2024-01-15T00:00:50;0.10;65.10
20066;DHT22;10193;48.884;9.182;2024-01-15T00:03:17;0.10;65.00
20066;DHT22;10193;48.884;9.182;2024-01-15T00:05:45;0.10;64.90
20066;DHT22;10193;48.884;9.182;2024-01-15T00:08:11;0.00;64.70
20066;DHT22;10193;48.884;9.182;2024-01-15T00:10:38;0.00;64.60
20066;DHT22;10193;48.884;9.182;2024-01-15T00:13:06;-0.10;64.60
20066;DHT22;10193;48.884;9.182;2024-01-15T00:15:32;-0.10;64.60
20066;DHT22;10193;48.884;9.182;2024-01-15T00:17:59;-0.20;64.50
20066;DHT22;10193;48.884;9.182;2024-01-15T00:20:25;-0.20;64.50
20066;DHT22;10193;48.884;9.182;2024-01-15T00:22:53;-0.30;64.40
20066;DHT22;10193;48.884;9.182;2024-01-15T00:25:20;-0.30;64.50
20066;DHT22;10193;48.884;9.182;2024-01-15T00:27:47;-0.40;64.50
20066;DHT22;10193;48.884;9.182;2024-01-15T00:30:14;-0.40;64.50
20066;DHT22;10193;48.884;9.182;2024-01-15T00:32:40;-0.50;64.60
20066;DHT22;10193;48.884;9.182;2024-01-15T00:35:07;-0.50;64.60
20066;DHT22;10193;48.884;9.182;2024-01-15T00:37:34;-0.60;64.70
20066;DHT22;10193;48.884;9.182;2024-01-15T00:40:03;-0.60;64.90
20066;DHT22;10193;48.884;9.182;2024-01-15T00:42:30;-0.70;65.00
20066;DHT22;10193;48.884;9.182;2024-01-15T00:44:56;-0.70;65.20
20066;DHT22;10193;48.884;9.182;2024-01-15T00:47:23;-0.70;65.30
20066;DHT22;10193;48.884;9.182;2024-01-15T00:49:49;-0.60;65.50
20066;DHT22;10193;48.884;9.182;2024-01-15T00:52:16;-0.70;65.60
20066;DHT22;10193;48.884;9.182;2024-01-15T00:54:43;-0.60;65.70
20066;DHT22;10193;48.884;9.182;2024-01-15T00:57:11;-0.60;66.00
20066;DHT22;10193;48.884;9.182;2024-01-15T00:59:38;-0.60;66.10
20066;DHT22;10193;48.884;9.182;2024-01-15T01:02:04;-0.60;66.30
20066;DHT22;10193;48.884;9.182;2024-01-15T01:04:31;-0.50;66.60
20066;DHT22;10193;48.884;9.182;2024-01-15T01:06:58;-0.50;67.60
20066;DHT22;10193;48.884;9.182;2024-01-15T01:09:25;-0.40;67.10
20066;DHT22;10193;48.884;9.182;2024-01-15T01:11:54;-0.30;67.20
20066;DHT22;10193;48.884;9.182;2024-01-15T01:14:22;-0.20;67.40
20066;DHT22;10193;48.884;9.182;2024-01-15T01:16:49;-0.20;67.40
20066;DHT22;10193;48.884;9.182;2024-01-15T01:19:16;-0.10;67.40
20066;DHT22;10193;48.884;9.182;2024-01-15T01:21:43;-0.10;67.30
20066;DHT22;10193;48.884;9.182;2024-01-15T01:24:09;0.00;67.30
20066;DHT22;10193;48.884;9.182;2024-01-15T01:26:36;0.10;67.40
20066;DHT22;10193;48.884;9.182;2024-01-15T01:29:03;0.20;67.50
20066;DHT22;10193;48.884;9.182;2024-01-15T01:31:31;0.20;67.40
20066;DHT22;10193;48.884;9.182;2024-01-15T01:33:57;0.30;67.50
20066;DHT22;10193;48.884;9.182;2024-01-15T01:36:24;0.30;67.40
20066;DHT22;10193;48.884;9.182;2024-01-15T01:38:51;0.40;67.40
20066;DHT22;10193;48.884;9.182;2024-01-15T01:41:17;0.40;67.20
20066;DHT22;10193;48.884;9.182;2024-01-15T01:43:44;0.50;67.40
20066;DHT22;10193;48.884;9.182;2024-01-15T01:46:11;0.50;67.30
20066;DHT22;10193;48.884;9.182;2024-01-15T01:48:39;0.60;67.30
20066;DHT22;10193;48.884;9.182;2024-01-15T01:51:06;0.60;67.20
20066;DHT22;10193;48.884;9.182;2024-01-15T01:53:35;0.70;67.30
20066;DHT22;10193;48.884;9.182;2024-01-15T01:56:03;0.70;67.30
20066;DHT22;10193;48.884;9.182;2024-01-15T01:58:31;0.70;67.20
20066;DHT22;10193;48.884;9.182;2024-01-15T02:00:59;0.80;67.40
20066;DHT22;10193;48.884;9.182;2024-01-15T02:03:26;0.80;67.20
20066;DHT22;10193;48.884;9.182;2024-01-15T02:05:55;0.80;67.10
20066;DHT22;10193;48.884;9.182;2024-01-15T02:08:22;0.90;67.20
20066;DHT22;10193;48.884;9.182;2024-01-15T02:10:49;0.90;67.10
20066;DHT22;10193;48.884;9.182;2024-01-15T02:13:16;0.90;67.10
20066;DHT22;10193;48.884;9.182;2024-01-15T02:15:43;1.00;67.10
20066;DHT22;10193;48.884;9.182;2024-01-15T02:18:10;1.00;67.00
20066;DHT22;10193;48.884;9.182;2024-01-15T02:20:37;1.00;67.00
20066;DHT22;10193;48.884;9.182;2024-01-15T02:23:08;1.00;67.00
20066;DHT22;10193;48.884;9.182;2024-01-15T02:25:37;1.00;67.00
20066;DHT22;10193;48.884;9.182;2024-01-15T02:28:04;1.00;67.00
20066;DHT22;10193;48.884;9.182;2024-01-15T02:30:31;1.00;67.00
20066;DHT22;10193;48.884;9.182;2024-01-15T02:32:58;1.10;67.00
20066;DHT22;10193;48.884;9.182;2024-01-15T02:35:25;1.10;66.90
20066;DHT22;10193;48.884;9.182;2024-01-15T02:37:52;1.10;66.90
20066;DHT22;10193;48.884;9.182;2024-01-15T02:40:20;1.10;66.70
20066;DHT22;10193;48.884;9.182;2024-01-15T02:42:46;1.10;66.60
20066;DHT22;10193;48.884;9.182;2024-01-15T02:45:13;1.10;66.60
20066;DHT22;10193;48.884;9.182;2024-01-15T02:47:40;1.10;66.50
20066;DHT22;10193;48.884;9.182;2024-01-15T02:50:07;1.10;66.40
20066;DHT22;10193;48.884;9.182;2024-01-15T02:52:33;1.10;66.30
20066;DHT22;10193;48.884;9.182;2024-01-15T02:55:00;1.10;66.20
20066;DHT22;10193;48.884;9.182;2024-01-15T02:57:28;1.10;66.20
20066;DHT22;10193;48.884;9.182;2024-01-15T02:59:55;1.10;66.20
20066;DHT22;10193;48.884;9.182;2024-01-15T03:02:21;1.10;66.40
20066;DHT22;10193;48.884;9.182;2024-01-15T03:04:48;1.10;66.40
20066;DHT22;10193;48.884;9.182;2024-01-15T03:07:15;1.10;66.40
20066;DHT22;10193;48.884;9.182;2024-01-15T03:09:42;1.10;66.40
20066;DHT22;10193;48.884;9.182;2024-01-15T03:12:08;1.10;66.40
20066;DHT22;10193;48.884;9.182;2024-01-15T03:14:37;1.10;66.50
20066;DHT22;10193;48.884;9.182;2024-01-15T03:17:04;1.10;66.50
20066;DHT22;10193;48.884;9.182;2024-01-15T03:19:34;1.10;66.60
20066;DHT22;10193;48.884;9.182;2024-01-15T03:22:01;1.10;66.60
20066;DHT22;10193;48.884;9.182;2024-01-15T03:24:29;1.10;66.60
20066;DHT22;10193;48.884;9.182;2024-01-15T03:26:55;1.10;66.60
20066;DHT22;10193;48.884;9.182;2024-01-15T03:29:22;1.20;66.80
20066;DHT22;10193;48.884;9.182;2024-01-15T03:31:50;1.20;66.80
20066;DHT22;10193;48.884;9.182;2024-01-15T03:34:17;1.20;66.80
20066;DHT22;10193;48.884;9.182;2024-01-15T03:36:43;1.20;66.80
20066;DHT22;10193;48.884;9.182;2024-01-15T03:39:10;1.20;66.70
20066;DHT22;10193;48.884;9.182;2024-01-15T03:41:37;1.20;66.70
20066;DHT22;10193;48.884;9.182;2024-01-15T03:44:03;1.20;66.70
20066;DHT22;10193;48.884;9.182;2024-01-15T03:46:30;1.20;66.80
20066;DHT22;10193;48.884;9.182;2024-01-15T03:48:58;1.30;66.90
20066;DHT22;10193;48.884;9.182;2024-01-15T03:51:25;1.30;66.90
20066;DHT22;10193;48.884;9.182;2024-01-15T03:53:51;1.30;67.00
20066;DHT22;10193;48.884;9.182;2024-01-15T03:56:18;1.30;67.00
20066;DHT22;10193;48.884;9.182;2024-01-15T03:58:45;1.40;67.20
20066;DHT22;10193;48.884;9.182;2024-01-15T04:01:12;1.40;67.10
20066;DHT22;10193;48.884;9.182;2024-01-15T04:03:38;1.40;67.10
20066;DHT22;10193;48.884;9.182;2024-01-15T04:06:06;1.50;67.20
20066;DHT22;10193;48.884;9.182;2024-01-15T04:08:33;1.50;67.20
20066;DHT22;10193;48.884;9.182;2024-01-15T04:11:00;1.50;67.20
20066;DHT22;10193;48.884;9.182;2024-01-15T04:13:27;1.60;67.20
20066;DHT22;10193;48.884;9.182;2024-01-15T04:15:53;1.60;67.20
20066;DHT22;10193;48.884;9.182;2024-01-15T04:18:20;1.70;67.20
20066;DHT22;10193;48.884;9.182;2024-01-15T04:20:47;1.70;67.20
20066;DHT22;10193;48.884;9.182;2024-01-15T04:23:15;1.70;67.10
20066;DHT22;10193;48.884;9.182;2024-01-15T04:25:41;1.80;67.10
20066;DHT22;10193;48.884;9.182;2024-01-15T04:28:08;1.80;67.10
20066;DHT22;10193;48.884;9.182;2024-01-15T04:30:35;1.80;67.00
20066;DHT22;10193;48.884;9.182;2024-01-15T04:33:02;1.80;67.00
20066;DHT22;10193;48.884;9.182;2024-01-15T04:35:29;1.90;67.10
20066;DHT22;10193;48.884;9.182;2024-01-15T04:37:56;1.90;67.10
20066;DHT22;10193;48.884;9.182;2024-01-15T04:40:24;1.90;67.00
20066;DHT22;10193;48.884;9.182;2024-01-15T04:42:53;1.90;67.00
20066;DHT22;10193;48.884;9.182;2024-01-15T04:45:19;2.00;67.10
20066;DHT22;10193;48.884;9.182;2024-01-15T04:47:48;2.00;67.10
20066;DHT22;10193;48.884;9.182;2024-01-15T04:50:15;2.00;67.10
20066;DHT22;10193;48.884;9.182;2024-01-15T04:52:41;2.00;67.10
20066;DHT22;10193;48.884;9.182;2024-01-15T04:55:08;2.10;67.20
20066;DHT22;10193;48.884;9.182;2024-01-15T04:57:36;2.10;67.10
20066;DHT22;10193;48.884;9.182;2024-01-15T05:00:04;2.10;67.00
20066;DHT22;10193;48.884;9.182;2024-01-15T05:02:30;2.10;67.00
20066;DHT22;10193;48.884;9.182;2024-01-15T05:04:57;2.20;67.00
20066;DHT22;10193;48.884;9.182;2024-01-15T05:07:24;2.20;66.90
20066;DHT22;10193;48.884;9.182;2024-01-15T05:09:50;2.20;66.80
20066;DHT22;10193;48.884;9.182;2024-01-15T05:12:17;2.20;66.70
20066;DHT22;10193;48.884;9.182;2024-01-15T05:14:45;2.20;66.70
20066;DHT22;10193;48.884;9.182;2024-01-15T05:17:12;2.20;66.60
20066;DHT22;10193;48.884;9.182;2024-01-15T05:19:38;2.20;66.60
20066;DHT22;10193;48.884;9.182;2024-01-15T05:22:05;2.20;66.60
20066;DHT22;10193;48.884;9.182;2024-01-15T05:24:31;2.20;66.60
20066;DHT22;10193;48.884;9.182;2024-01-15T05:26:58;2.20;66.60
20066;DHT22;10193;48.884;9.182;2024-01-15T05:29:25;2.20;66.50
20066;DHT22;10193;48.884;9.182;2024-01-15T05:31:53;2.20;66.50
20066;DHT22;10193;48.884;9.182;2024-01-15T05:34:20;2.20;66.50
20066;DHT22;10193;48.884;9.182;2024-01-15T05:36:47;2.20;66.50
20066;DHT22;10193;48.884;9.182;2024-01-15T05:39:14;2.20;66.50
20066;DHT22;10193;48.884;9.182;2024-01-15T05:41:40;2.20;66.50
20066;DHT22;10193;48.884;9.182;2024-01-15T05:44:07;2.30;66.70
20066;DHT22;10193;48.884;9.182;2024-01-15T05:46:33;2.30;66.60
20066;DHT22;10193;48.884;9.182;2024-01-15T05:49:01;2.30;66.60
20066;DHT22;10193;48.884;9.182;2024-01-15T05:51:28;2.30;66.70
20066;DHT22;10193;48.884;9.182;2024-01-15T05:53:55;2.30;66.60
20066;DHT22;10193;48.884;9.182;2024-01-15T05:56:21;2.30;66.60
20066;DHT22;10193;48.884;9.182;2024-01-15T05:58:49;2.30;66.60
20066;DHT22;10193;48.884;9.182;2024-01-15T06:01:16;2.30;66.60
20066;DHT22;10193;48.884;9.182;2024-01-15T06:03:42;2.30;66.50
20066;DHT22;10193;48.884;9.182;2024-01-15T06:06:10;2.30;66.50
20066;DHT22;10193;48.884;9.182;2024-01-15T06:08:37;2.30;66.50
20066;DHT22;10193;48.884;9.182;2024-01-15T06:11:04;2.30;66.50
20066;DHT22;10193;48.884;9.182;2024-01-15T06:13:31;2.30;66.50
20066;DHT22;10193;48.884;9.182;2024-01-15T06:15:58;2.30;66.50
20066;DHT22;10193;48.884;9.182;2024-01-15T06:18:25;2.30;66.50
20066;DHT22;10193;48.884;9.182;2024-01-15T06:20:51;2.30;66.50
20066;DHT22;10193;48.884;9.182;2024-01-15T06:23:19;2.30;66.50
20066;DHT22;10193;48.884;9.182;2024-01-15T06:25:46;2.30;66.50
20066;DHT22;10193;48.884;9.182;2024-01-15T06:28:13;2.30;66.50
20066;DHT22;10193;48.884;9.182;2024-01-15T06:30:39;2.30;66.50
20066;DHT22;10193;48.884;9.182;2024-01-15T06:33:06;2.40;66.60
20066;DHT22;10193;48.884;9.182;2024-01-15T06:35:32;2.40;66.60
20066;DHT22;10193;48.884;9.182;2024-01-15T06:38:00;2.40;66.60
20066;DHT22;10193;48.884;9.182;2024-01-15T06:40:28;2.40;66.60
20066;DHT22;10193;48.884;9.182;2024-01-15T06:42:55;2.40;66.60
20066;DHT22;10193;48.884;9.182;2024-01-15T06:45:21;2.40;66.60
20066;DHT22;10193;48.884;9.182;2024-01-15T06:47:48;2.40;66.60
20066;DHT22;10193;48.884;9.182;2024-01-15T06:50:15;2.50;66.60
20066;DHT22;10193;48.884;9.182;2024-01-15T06:52:41;2.50;66.60
20066;DHT22;10193;48.884;9.182;2024-01-15T06:55:08;2.50;66.60
20066;DHT22;10193;48.884;9.182;2024-01-15T06:57:36;2.50;66.50
20066;DHT22;10193;48.884;9.182;2024-01-15T07:00:03;2.50;66.20
20066;DHT22;10193;48.884;9.182;2024-01-15T07:02:33;2.50;66.40
20066;DHT22;10193;48.884;9.182;2024-01-15T07:04:59;2.50;66.30
20066;DHT22;10193;48.884;9.182;2024-01-15T07:07:26;2.50;66.30
20066;DHT22;10193;48.884;9.182;2024-01-15T07:09:55;2.50;67.10
20066;DHT22;10193;48.884;9.182;2024-01-15T07:12:22;2.50;66.20
20066;DHT22;10193;48.884;9.182;2024-01-15T07:14:50;2.50;66.20
20066;DHT22;10193;48.884;9.182;2024-01-15T07:17:16;2.60;66.30
20066;DHT22;10193;48.884;9.182;2024-01-15T07:19:43;2.50;66.10
20066;DHT22;10193;48.884;9.182;2024-01-15T07:22:10;2.60;66.20
20066;DHT22;10193;48.884;9.182;2024-01-15T07:24:36;2.60;66.30
20066;DHT22;10193;48.884;9.182;2024-01-15T07:27:03;2.60;66.30
20066;DHT22;10193;48.884;9.182;2024-01-15T07:29:30;2.60;66.30
20066;DHT22;10193;48.884;9.182;2024-01-15T07:31:59;2.60;66.30
20066;DHT22;10193;48.884;9.182;2024-01-15T07:34:26;2.60;66.30
20066;DHT22;10193;48.884;9.182;2024-01-15T07:36:53;2.60;66.40
20066;DHT22;10193;48.884;9.182;2024-01-15T07:39:19;2.60;66.40
20066;DHT22;10193;48.884;9.182;2024-01-15T07:41:48;2.60;66.30
20066;DHT22;10193;48.884;9.182;2024-01-15T07:44:14;2.60;66.30
20066;DHT22;10193;48.884;9.182;2024-01-15T07:46:44;2.60;66.50
20066;DHT22;10193;48.884;9.182;2024-01-15T07:49:12;2.60;66.30
20066;DHT22;10193;48.884;9.182;2024-01-15T07:51:39;2.60;66.40
20066;DHT22;10193;48.884;9.182;2024-01-15T07:54:07;2.60;66.40
20066;DHT22;10193;48.884;9.182;2024-01-15T07:56:33;2.70;66.50
20066;DHT22;10193;48.884;9.182;2024-01-15T07:59:00;2.70;66.40
20066;DHT22;10193;48.884;9.182;2024-01-15T08:01:27;2.70;66.40
20066;DHT22;10193;48.884;9.182;2024-01-15T08:03:53;2.70;66.30
20066;DHT22;10193;48.884;9.182;2024-01-15T08:06:22;2.70;66.40
20066;DHT22;10193;48.884;9.182;2024-01-15T08:08:49;2.70;66.30
20066;DHT22;10193;48.884;9.182;2024-01-15T08:11:15;2.70;66.30
20066;DHT22;10193;48.884;9.182;2024-01-15T08:13:42;2.80;67.20
20066;DHT22;10193;48.884;9.182;2024-01-15T08:16:08;2.80;66.40
20066;DHT22;10193;48.884;9.182;2024-01-15T08:18:36;2.80;66.40
20066;DHT22;10193;48.884;9.182;2024-01-15T08:21:02;2.80;66.30
20066;DHT22;10193;48.884;9.182;2024-01-15T08:23:30;2.80;66.30
20066;DHT22;10193;48.884;9.182;2024-01-15T08:25:57;2.90;66.30
20066;DHT22;10193;48.884;9.182;2024-01-15T08:28:24;2.90;66.40
20066;DHT22;10193;48.884;9.182;2024-01-15T08:30:51;2.90;66.40
20066;DHT22;10193;48.884;9.182;2024-01-15T08:33:17;2.90;66.30
20066;DHT22;10193;48.884;9.182;2024-01-15T08:35:44;2.90;66.30
20066;DHT22;10193;48.884;9.182;2024-01-15T08:38:11;3.00;66.30
20066;DHT22;10193;48.884;9.182;2024-01-15T08:40:39;3.00;66.30
20066;DHT22;10193;48.884;9.182;2024-01-15T08:43:05;3.00;66.30
20066;DHT22;10193;48.884;9.182;2024-01-15T08:45:33;3.00;66.30
20066;DHT22;10193;48.884;9.182;2024-01-15T08:47:59;3.10;66.30
20066;DHT22;10193;48.884;9.182;2024-01-15T08:50:26;3.10;66.40
20066;DHT22;10193;48.884;9.182;2024-01-15T08:52:53;3.10;66.40
20066;DHT22;10193;48.884;9.182;2024-01-15T08:55:20;3.20;66.50
20066;DHT22;10193;48.884;9.182;2024-01-15T08:57:49;3.20;66.40
20066;DHT22;10193;48.884;9.182;2024-01-15T09:00:16;3.20;66.30
20066;DHT22;10193;48.884;9.182;2024-01-15T09:02:44;3.20;66.40
20066;DHT22;10193;48.884;9.182;2024-01-15T09:05:10;3.30;66.30
20066;DHT22;10193;48.884;9.182;2024-01-15T09:07:37;3.30;66.30
20066;DHT22;10193;48.884;9.182;2024-01-15T09:10:04;3.30;66.20
20066;DHT22;10193;48.884;9.182;2024-01-15T09:12:32;3.30;66.20
20066;DHT22;10193;48.884;9.182;2024-01-15T09:14:59;3.40;66.30
20066;DHT22;10193;48.884;9.182;2024-01-15T09:17:29;3.40;66.20
20066;DHT22;10193;48.884;9.182;2024-01-15T09:19:56;3.40;66.20
20066;DHT22;10193;48.884;9.182;2024-01-15T09:22:23;3.40;66.10
20066;DHT22;10193;48.884;9.182;2024-01-15T09:24:49;3.50;66.20
20066;DHT22;10193;48.884;9.182;2024-01-15T09:27:16;3.50;66.20
20066;DHT22;10193;48.884;9.182;2024-01-15T09:29:43;3.60;66.10
20066;DHT22;10193;48.884;9.182;2024-01-15T09:32:12;3.60;66.20
20066;DHT22;10193;48.884;9.182;2024-01-15T09:34:39;3.60;66.00
20066;DHT22;10193;48.884;9.182;2024-01-15T09:37:06;3.70;66.10
20066;DHT22;10193;48.884;9.182;2024-01-15T09:39:33;3.70;66.00
20066;DHT22;10193;48.884;9.182;2024-01-15T09:42:00;3.70;66.00
20066;DHT22;10193;48.884;9.182;2024-01-15T09:44:27;3.70;66.00
20066;DHT22;10193;48.884;9.182;2024-01-15T09:46:55;3.80;65.90
20066;DHT22;10193;48.884;9.182;2024-01-15T09:49:24;3.80;65.90
20066;DHT22;10193;48.884;9.182;2024-01-15T09:51:51;3.80;65.90
20066;DHT22;10193;48.884;9.182;2024-01-15T09:54:17;3.80;65.70
20066;DHT22;10193;48.884;9.182;2024-01-15T09:56:45;3.90;65.90
20066;DHT22;10193;48.884;9.182;2024-01-15T09:59:14;3.90;65.70
20066;DHT22;10193;48.884;9.182;2024-01-15T10:01:43;3.90;65.70
20066;DHT22;10193;48.884;9.182;2024-01-15T10:04:09;3.90;65.80
20066;DHT22;10193;48.884;9.182;2024-01-15T10:06:38;4.00;66.00
20066;DHT22;10193;48.884;9.182;2024-01-15T10:09:05;4.00;65.90
20066;DHT22;10193;48.884;9.182;2024-01-15T10:11:33;4.00;65.80
20066;DHT22;10193;48.884;9.182;2024-01-15T10:14:00;4.10;65.70
20066;DHT22;10193;48.884;9.182;2024-01-15T10:16:27;4.10;65.70
20066;DHT22;10193;48.884;9.182;2024-01-15T10:18:54;4.10;65.60
20066;DHT22;10193;48.884;9.182;2024-01-15T10:21:21;4.10;65.40
20066;DHT22;10193;48.884;9.182;2024-01-15T10:23:49;4.20;65.40
20066;DHT22;10193;48.884;9.182;2024-01-15T10:26:15;4.20;65.30
20066;DHT22;10193;48.884;9.182;2024-01-15T10:28:42;4.20;65.40
20066;DHT22;10193;48.884;9.182;2024-01-15T10:31:09;4.20;65.20
20066;DHT22;10193;48.884;9.182;2024-01-15T10:33:37;4.20;65.30
20066;DHT22;10193;48.884;9.182;2024-01-15T10:36:09;4.20;65.20
20066;DHT22;10193;48.884;9.182;2024-01-15T10:38:36;4.20;65.00
20066;DHT22;10193;48.884;9.182;2024-01-15T10:41:04;4.20;65.00
20066;DHT22;10193;48.884;9.182;2024-01-15T10:43:31;4.20;64.80
20066;DHT22;10193;48.884;9.182;2024-01-15T10:45:59;4.20;65.00
20066;DHT22;10193;48.884;9.182;2024-01-15T10:48:26;4.20;64.80
20066;DHT22;10193;48.884;9.182;2024-01-15T10:50:54;4.20;64.90
20066;DHT22;10193;48.884;9.182;2024-01-15T10:53:21;4.20;65.00
20066;DHT22;10193;48.884;9.182;2024-01-15T10:55:50;4.20;65.20
20066;DHT22;10193;48.884;9.182;2024-01-15T10:58:20;4.20;65.20
20066;DHT22;10193;48.884;9.182;2024-01-15T11:00:47;4.20;65.10
20066;DHT22;10193;48.884;9.182;2024-01-15T11:03:14;4.20;65.10
20066;DHT22;10193;48.884;9.182;2024-01-15T11:05:43;4.20;65.10
20066;DHT22;10193;48.884;9.182;2024-01-15T11:08:09;4.20;65.90
20066;DHT22;10193;48.884;9.182;2024-01-15T11:10:41;4.20;65.20
20066;DHT22;10193;48.884;9.182;2024-01-15T11:13:09;4.10;65.00
20066;DHT22;10193;48.884;9.182;2024-01-15T11:15:55;4.10;65.00
20066;DHT22;10193;48.884;9.182;2024-01-15T11:18:22;4.10;65.10
20066;DHT22;10193;48.884;9.182;2024-01-15T11:21:19;4.10;65.10
20066;DHT22;10193;48.884;9.182;2024-01-15T11:23:48;4.00;65.00
20066;DHT22;10193;48.884;9.182;2024-01-15T11:26:33;4.00;65.10
20066;DHT22;10193;48.884;9.182;2024-01-15T11:29:02;4.00;65.30
20066;DHT22;10193;48.884;9.182;2024-01-15T11:31:58;3.90;65.30
20066;DHT22;10193;48.884;9.182;2024-01-15T11:34:51;3.90;65.70
20066;DHT22;10193;48.884;9.182;2024-01-15T11:37:18;3.80;65.90
20066;DHT22;10193;48.884;9.182;2024-01-15T11:39:45;3.80;66.00
20066;DHT22;10193;48.884;9.182;2024-01-15T11:42:13;3.80;66.20
20066;DHT22;10193;48.884;9.182;2024-01-15T11:44:41;3.90;66.50
20066;DHT22;10193;48.884;9.182;2024-01-15T11:47:10;3.80;66.50
20066;DHT22;10193;48.884;9.182;2024-01-15T11:50:06;3.80;66.60
20066;DHT22;10193;48.884;9.182;2024-01-15T11:52:35;3.80;66.60
20066;DHT22;10193;48.884;9.182;2024-01-15T11:55:16;3.90;66.50
20066;DHT22;10193;48.884;9.182;2024-01-15T11:57:46;3.80;66.30
20066;DHT22;10193;48.884;9.182;2024-01-15T12:00:14;3.80;66.30
20066;DHT22;10193;48.884;9.182;2024-01-15T12:02:43;3.80;66.20
20066;DHT22;10193;48.884;9.182;2024-01-15T12:05:11;3.80;66.30
20066;DHT22;10193;48.884;9.182;2024-01-15T12:07:38;3.80;66.30
20066;DHT22;10193;48.884;9.182;2024-01-15T12:10:08;3.80;66.30
20066;DHT22;10193;48.884;9.182;2024-01-15T12:12:54;3.70;66.40
20066;DHT22;10193;48.884;9.182;2024-01-15T12:15:24;3.70;66.50
20066;DHT22;10193;48.884;9.182;2024-01-15T12:17:53;3.70;66.50
20066;DHT22;10193;48.884;9.182;2024-01-15T12:20:20;3.70;66.60
20066;DHT22;10193;48.884;9.182;2024-01-15T12:22:47;3.70;66.60
20066;DHT22;10193;48.884;9.182;2024-01-15T12:25:14;3.60;66.60
20066;DHT22;10193;48.884;9.182;2024-01-15T12:27:41;3.60;66.80
20066;DHT22;10193;48.884;9.182;2024-01-15T12:30:11;3.60;66.80
20066;DHT22;10193;48.884;9.182;2024-01-15T12:32:38;3.60;66.90
20066;DHT22;10193;48.884;9.182;2024-01-15T12:35:06;3.60;67.00
20066;DHT22;10193;48.884;9.182;2024-01-15T12:37:35;3.50;67.00
20066;DHT22;10193;48.884;9.182;2024-01-15T12:40:02;3.50;67.00
20066;DHT22;10193;48.884;9.182;2024-01-15T12:42:30;3.50;67.10
20066;DHT22;10193;48.884;9.182;2024-01-15T12:44:57;3.50;67.10
20066;DHT22;10193;48.884;9.182;2024-01-15T12:47:23;3.50;67.30
20066;DHT22;10193;48.884;9.182;2024-01-15T12:49:51;3.50;67.30
20066;DHT22;10193;48.884;9.182;2024-01-15T12:52:21;3.50;67.40
20066;DHT22;10193;48.884;9.182;2024-01-15T12:54:48;3.40;67.40
20066;DHT22;10193;48.884;9.182;2024-01-15T12:57:15;3.40;67.50
20066;DHT22;10193;48.884;9.182;2024-01-15T12:59:42;3.40;67.60
20066;DHT22;10193;48.884;9.182;2024-01-15T13:02:09;3.50;67.80
20066;DHT22;10193;48.884;9.182;2024-01-15T13:04:35;3.40;67.70
20066;DHT22;10193;48.884;9.182;2024-01-15T13:07:02;3.40;67.80
20066;DHT22;10193;48.884;9.182;2024-01-15T13:09:30;3.40;67.80
20066;DHT22;10193;48.884;9.182;2024-01-15T13:11:57;3.40;67.80
20066;DHT22;10193;48.884;9.182;2024-01-15T13:14:23;3.40;67.80
20066;DHT22;10193;48.884;9.182;2024-01-15T13:16:50;3.50;68.10
20066;DHT22;10193;48.884;9.182;2024-01-15T13:19:16;3.50;68.20
20066;DHT22;10193;48.884;9.182;2024-01-15T13:21:44;3.50;68.30
20066;DHT22;10193;48.884;9.182;2024-01-15T13:24:11;3.50;68.40
20066;DHT22;10193;48.884;9.182;2024-01-15T13:26:39;3.50;68.30
20066;DHT22;10193;48.884;9.182;2024-01-15T13:29:06;3.60;68.10
20066;DHT22;10193;48.884;9.182;2024-01-15T13:31:33;3.60;67.80
20066;DHT22;10193;48.884;9.182;2024-01-15T13:34:00;3.60;67.70
20066;DHT22;10193;48.884;9.182;2024-01-15T13:36:27;3.60;67.70
20066;DHT22;10193;48.884;9.182;2024-01-15T13:38:54;3.60;67.60
20066;DHT22;10193;48.884;9.182;2024-01-15T13:41:21;3.60;67.60
20066;DHT22;10193;48.884;9.182;2024-01-15T13:43:54;3.60;67.80
20066;DHT22;10193;48.884;9.182;2024-01-15T13:46:24;3.60;67.70
20066;DHT22;10193;48.884;9.182;2024-01-15T13:48:53;3.60;67.70
20066;DHT22;10193;48.884;9.182;2024-01-15T13:51:21;3.60;67.60
20066;DHT22;10193;48.884;9.182;2024-01-15T13:53:48;3.60;67.50
20066;DHT22;10193;48.884;9.182;2024-01-15T13:56:15;3.60;67.50
20066;DHT22;10193;48.884;9.182;2024-01-15T13:58:43;3.50;67.40
20066;DHT22;10193;48.884;9.182;2024-01-15T14:01:11;3.60;67.50
20066;DHT22;10193;48.884;9.182;2024-01-15T14:03:38;3.50;67.40
20066;DHT22;10193;48.884;9.182;2024-01-15T14:06:04;3.50;67.50
20066;DHT22;10193;48.884;9.182;2024-01-15T14:08:34;3.50;67.50
20066;DHT22;10193;48.884;9.182;2024-01-15T14:11:01;3.50;67.50
20066;DHT22;10193;48.884;9.182;2024-01-15T14:13:27;3.50;67.50
20066;DHT22;10193;48.884;9.182;2024-01-15T14:15:54;3.50;67.40
20066;DHT22;10193;48.884;9.182;2024-01-15T14:18:22;3.50;67.40
20066;DHT22;10193;48.884;9.182;2024-01-15T14:20:49;3.50;67.50
20066;DHT22;10193;48.884;9.182;2024-01-15T14:23:15;3.50;67.50
20066;DHT22;10193;48.884;9.182;2024-01-15T14:25:42;3.50;67.50
20066;DHT22;10193;48.884;9.182;2024-01-15T14:28:09;3.50;67.40
20066;DHT22;10193;48.884;9.182;2024-01-15T14:30:36;3.40;67.30
20066;DHT22;10193;48.884;9.182;2024-01-15T14:33:02;3.40;67.30
20066;DHT22;10193;48.884;9.182;2024-01-15T14:35:30;3.40;67.40
20066;DHT22;10193;48.884;9.182;2024-01-15T14:37:57;3.40;67.50
20066;DHT22;10193;48.884;9.182;2024-01-15T14:40:24;3.30;67.40
20066;DHT22;10193;48.884;9.182;2024-01-15T14:42:51;3.30;67.60
20066;DHT22;10193;48.884;9.182;2024-01-15T14:45:18;3.30;67.60
20066;DHT22;10193;48.884;9.182;2024-01-15T14:47:45;3.30;67.70
20066;DHT22;10193;48.884;9.182;2024-01-15T14:50:12;3.30;67.80
20066;DHT22;10193;48.884;9.182;2024-01-15T14:52:40;3.30;67.80
20066;DHT22;10193;48.884;9.182;2024-01-15T14:55:08;3.30;67.80
20066;DHT22;10193;48.884;9.182;2024-01-15T14:57:35;3.30;67.80
20066;DHT22;10193;48.884;9.182;2024-01-15T15:00:03;3.30;67.80
20066;DHT22;10193;48.884;9.182;2024-01-15T15:02:32;3.30;67.80
20066;DHT22;10193;48.884;9.182;2024-01-15T15:05:00;3.20;67.50
20066;DHT22;10193;48.884;9.182;2024-01-15T15:07:26;3.20;67.60
20066;DHT22;10193;48.884;9.182;2024-01-15T15:09:54;3.10;67.50
20066;DHT22;10193;48.884;9.182;2024-01-15T15:12:21;3.20;67.50
20066;DHT22;10193;48.884;9.182;2024-01-15T15:14:48;3.20;67.50
20066;DHT22;10193;48.884;9.182;2024-01-15T15:17:14;3.20;67.40
20066;DHT22;10193;48.884;9.182;2024-01-15T15:19:41;3.20;67.40
20066;DHT22;10193;48.884;9.182;2024-01-15T15:22:08;3.20;67.40
20066;DHT22;10193;48.884;9.182;2024-01-15T15:24:36;3.20;67.50
20066;DHT22;10193;48.884;9.182;2024-01-15T15:27:05;3.20;67.50
20066;DHT22;10193;48.884;9.182;2024-01-15T15:29:32;3.20;67.50
20066;DHT22;10193;48.884;9.182;2024-01-15T15:31:58;3.20;67.50
20066;DHT22;10193;48.884;9.182;2024-01-15T15:34:25;3.20;67.50
20066;DHT22;10193;48.884;9.182;2024-01-15T15:36:52;3.20;67.50
20066;DHT22;10193;48.884;9.182;2024-01-15T15:39:18;3.10;67.40
20066;DHT22;10193;48.884;9.182;2024-01-15T15:41:45;3.20;67.50
20066;DHT22;10193;48.884;9.182;2024-01-15T15:44:13;3.20;67.50
20066;DHT22;10193;48.884;9.182;2024-01-15T15:46:42;3.10;67.40